Time;durP1;ratioP1;P1;durP2;ratioP2;P2;SDS_P1;SDS_P2;PMS_P1;PMS_P2;Temp;Humidity;BMP_temperature;BMP_pressure;BME280_temperature;BME280_humidity;BME280_pressure;Samples;Min_cycle;Max_cycle;Signal;HPM_P1;HPM_P2
2023/09/19 00:01:19;;;;;;;6.60;0.68;;;;;;;13.41;55.67;100284.28;5041669;28;21114;-72
2023/09/19 00:03:45;;;;;;;2.13;0.60;;;;;;;13.11;56.58;100285.19;5022078;28;20048;-73
2023/09/19 00:06:13;;;;;;;3.83;0.20;;;;;;;13.08;56.54;100281.91;5021774;28;20557;-72
2023/09/19 00:08:39;;;;;;;4.35;0.80;;;;;;;13.32;55.75;100288.31;5024382;28;20124;-72
2023/09/19 00:11:08;;;;;;;3.95;0.52;;;;;;;13.37;55.60;100290.66;5020402;28;20694;-72
2023/09/19 00:13:36;;;;;;;5.72;0.45;;;;;;;13.26;55.84;100295.72;5024341;28;20033;-71
2023/09/19 00:16:10;;;;;;;4.07;0.20;;;;;;;13.18;55.84;100282.19;5020754;28;20056;-72
2023/09/19 00:18:36;;;;;;;4.57;0.40;;;;;;;13.01;56.54;100280.59;5024263;28;20037;-72
2023/09/19 00:21:04;;;;;;;4.55;0.93;;;;;;;13.24;55.68;100289.72;5007002;28;21002;-72
2023/09/19 00:23:31;;;;;;;4.95;0.43;;;;;;;12.65;57.04;100303.63;5009646;28;20471;-71
2023/09/19 00:26:00;;;;;;;5.72;0.80;;;;;;;12.72;56.96;100308.56;5041429;28;20032;-71
2023/09/19 00:28:29;;;;;;;2.72;0.32;;;;;;;12.74;56.85;100309.31;5042384;28;20055;-71
2023/09/19 00:30:55;;;;;;;8.02;0.57;;;;;;;12.79;55.94;100307.25;5020981;28;20098;-71
2023/09/19 00:33:22;;;;;;;6.43;0.75;;;;;;;11.84;58.09;100319.50;5022696;28;20045;-72
2023/09/19 00:35:48;;;;;;;10.43;0.50;;;;;;;12.19;57.44;100327.19;5009001;28;20110;-72
2023/09/19 00:38:16;;;;;;;5.15;0.70;;;;;;;11.92;58.02;100331.34;5020023;28;20041;-72
2023/09/19 00:40:45;;;;;;;7.47;0.63;;;;;;;12.31;56.77;100333.50;5041185;28;20037;-72
2023/09/19 00:43:11;;;;;;;3.90;0.77;;;;;;;12.23;56.95;100326.09;5016583;28;20068;-71
2023/09/19 00:45:42;;;;;;;2.85;0.43;;;;;;;12.48;56.15;100327.31;5026363;28;20057;-71
2023/09/19 00:48:09;;;;;;;1.65;0.43;;;;;;;12.07;57.41;100320.03;5018230;28;20037;-71
2023/09/19 00:50:35;;;;;;;10.27;0.73;;;;;;;12.39;56.46;100322.63;5009151;28;20033;-71
2023/09/19 00:53:01;;;;;;;7.55;1.40;;;;;;;12.63;55.75;100329.09;5034439;28;20612;-71
2023/09/19 00:55:32;;;;;;;4.10;0.95;;;;;;;12.47;56.24;100336.13;5026000;28;20087;-71
2023/09/19 00:57:58;;;;;;;11.23;1.20;;;;;;;12.20;57.52;100343.75;5028376;28;20036;-71
2023/09/19 01:00:24;;;;;;;4.07;0.20;;;;;;;12.36;57.04;100334.13;5028876;28;20613;-71
2023/09/19 01:02:50;;;;;;;3.00;0.90;;;;;;;11.87;58.65;100335.03;5022344;28;20098;-71
2023/09/19 01:05:16;;;;;;;7.70;0.50;;;;;;;12.14;57.79;100331.84;5030394;28;20029;-71
2023/09/19 01:07:42;;;;;;;6.55;0.38;;;;;;;12.17;57.70;100336.91;5040092;28;20044;-71
2023/09/19 01:10:17;;;;;;;7.13;0.82;;;;;;;12.17;57.69;100347.38;5022531;28;20028;-71
2023/09/19 01:13:08;;;;;;;3.97;0.75;;;;;;;12.45;56.55;100348.47;5024163;28;20037;-71
2023/09/19 01:15:55;;;;;;;8.50;1.17;;;;;;;12.07;57.64;100356.69;5026947;28;20041;-71
2023/09/19 01:18:40;;;;;;;6.25;0.80;;;;;;;11.69;59.04;100362.19;5023146;28;20044;-71
2023/09/19 01:21:34;;;;;;;5.53;0.40;;;;;;;11.73;58.81;100362.84;5043939;28;20182;-71
2023/09/19 01:24:22;;;;;;;6.55;0.50;;;;;;;12.06;57.77;100368.06;5016869;28;20047;-71
2023/09/19 01:27:07;;;;;;;3.28;0.38;;;;;;;11.85;58.00;100373.56;5030607;28;20139;-71
2023/09/19 01:29:44;;;;;;;4.40;0.90;;;;;;;11.64;58.57;100372.03;5024128;28;20072;-71
2023/09/19 01:32:14;;;;;;;7.85;0.52;;;;;;;12.00;57.34;100378.88;5022910;28;20055;-71
2023/09/19 01:34:45;;;;;;;1.83;0.20;;;;;;;11.97;57.42;100381.69;5022739;28;20724;-71
2023/09/19 01:37:10;;;;;;;5.05;0.60;;;;;;;11.84;57.70;100382.34;5026042;28;20068;-72
2023/09/19 01:39:37;;;;;;;9.20;0.50;;;;;;;11.25;59.77;100388.88;5041319;28;20036;-73
2023/09/19 01:42:37;;;;;;;4.70;0.57;;;;;;;11.03;60.76;100397.78;5025487;28;20043;-73
2023/09/19 01:45:22;;;;;;;5.78;0.50;;;;;;;11.60;59.02;100400.16;5010648;28;20503;-72
2023/09/19 01:47:55;;;;;;;3.92;0.63;;;;;;;11.77;58.66;100401.91;5010426;28;20038;-72
2023/09/19 01:50:53;;;;;;;7.60;0.68;;;;;;;11.43;60.18;100401.00;5024229;28;20041;-72
2023/09/19 01:53:31;;;;;;;5.40;0.20;;;;;;;11.90;58.42;100401.28;5023092;28;20070;-72
2023/09/19 01:55:57;;;;;;;9.70;0.60;;;;;;;11.71;58.97;100394.38;5009136;28;20040;-72
2023/09/19 01:58:37;;;;;;;1.95;0.40;;;;;;;11.28;60.73;100395.72;5021724;28;20171;-73
2023/09/19 02:01:08;;;;;;;3.15;0.30;;;;;;;11.50;59.33;100392.84;5027054;28;20500;-73
2023/09/19 02:03:36;;;;;;;14.35;1.35;;;;;;;11.14;60.50;100392.00;5039329;28;20052;-72
2023/09/19 02:06:03;;;;;;;8.57;0.65;;;;;;;11.35;59.64;100399.69;5025433;28;20586;-72
2023/09/19 02:08:33;;;;;;;4.03;0.38;;;;;;;11.16;60.04;100394.56;5026477;28;20048;-73
2023/09/19 02:10:59;;;;;;;6.57;0.40;;;;;;;11.08;59.95;100407.16;5025839;28;20037;-71
2023/09/19 02:13:27;;;;;;;8.38;0.80;;;;;;;11.26;59.32;100393.16;5021099;28;20584;-71
2023/09/19 02:15:54;;;;;;;6.47;0.80;;;;;;;10.96;59.98;100401.63;5026963;28;20034;-71
2023/09/19 02:18:19;;;;;;;15.50;0.90;;;;;;;11.21;59.34;100400.41;5022962;28;20041;-71
2023/09/19 02:20:45;;;;;;;7.47;0.70;;;;;;;11.42;58.53;100407.19;5022458;28;20029;-71
2023/09/19 02:23:12;;;;;;;5.68;0.65;;;;;;;11.30;58.63;100405.16;5016626;28;20454;-73
2023/09/19 02:25:40;;;;;;;7.95;0.40;;;;;;;11.13;59.26;100406.03;5024349;28;20029;-71
2023/09/19 02:28:09;;;;;;;5.65;0.45;;;;;;;10.94;59.69;100410.47;5020725;28;20033;-72
2023/09/19 02:30:36;;;;;;;4.00;0.40;;;;;;;11.41;57.80;100405.47;5025583;28;20470;-71
2023/09/19 02:33:01;;;;;;;5.20;0.57;;;;;;;11.38;57.99;100410.88;5038850;28;20618;-70
2023/09/19 02:35:28;;;;;;;4.60;0.85;;;;;;;11.05;58.79;100409.00;5024133;28;20128;-70
2023/09/19 02:37:53;;;;;;;6.07;0.38;;;;;;;10.68;59.91;100399.47;5039832;28;20398;-70
2023/09/19 02:40:19;;;;;;;1.95;0.25;;;;;;;10.91;58.81;100400.16;5020037;28;20035;-70
2023/09/19 02:42:49;;;;;;;5.82;0.32;;;;;;;10.79;58.90;100405.03;5006515;28;20063;-70
2023/09/19 02:45:17;;;;;;;4.03;0.32;;;;;;;10.91;58.58;100401.00;5026004;28;20718;-70
2023/09/19 02:47:44;;;;;;;2.03;0.80;;;;;;;10.99;58.48;100414.53;5005814;28;20107;-70
2023/09/19 02:50:11;;;;;;;5.00;0.40;;;;;;;11.00;58.09;100416.25;5023742;28;20254;-70
2023/09/19 02:52:37;;;;;;;7.03;0.55;;;;;;;10.68;58.97;100409.06;5025076;28;20037;-70
2023/09/19 02:55:05;;;;;;;5.13;1.05;;;;;;;11.04;57.70;100406.50;5021938;28;20082;-70
2023/09/19 02:57:33;;;;;;;11.60;1.40;;;;;;;10.54;58.94;100413.19;5025909;28;20040;-71
2023/09/19 03:00:00;;;;;;;5.78;0.63;;;;;;;10.31;59.59;100410.81;5010475;28;20025;-71
2023/09/19 03:02:27;;;;;;;6.03;0.40;;;;;;;10.59;58.92;100418.19;5036545;28;20479;-71
2023/09/19 03:04:53;;;;;;;7.88;1.45;;;;;;;10.73;58.24;100422.78;5039396;28;20033;-69
2023/09/19 03:07:19;;;;;;;3.97;2.05;;;;;;;10.44;58.88;100417.16;5039097;28;20491;-71
2023/09/19 03:09:45;;;;;;;5.75;0.32;;;;;;;10.43;58.99;100421.53;5028819;28;20039;-70
2023/09/19 03:12:11;;;;;;;8.93;1.00;;;;;;;10.40;59.01;100423.44;5008434;28;20057;-70
2023/09/19 03:14:37;;;;;;;2.58;0.45;;;;;;;10.31;59.55;100421.28;5044445;28;20037;-71
2023/09/19 03:17:05;;;;;;;11.95;1.10;;;;;;;10.55;58.47;100425.34;5019827;28;20044;-71
2023/09/19 03:19:33;;;;;;;3.88;0.43;;;;;;;10.41;58.58;100439.06;5028878;28;20028;-71
2023/09/19 03:21:59;;;;;;;5.45;0.55;;;;;;;10.26;59.14;100428.44;5003342;28;20041;-71
2023/09/19 03:24:26;;;;;;;5.05;0.50;;;;;;;10.32;58.66;100428.16;5021929;28;20510;-71
2023/09/19 03:26:52;;;;;;;2.50;0.30;;;;;;;10.28;58.53;100437.06;5021627;28;20097;-72
2023/09/19 03:29:18;;;;;;;7.25;0.70;;;;;;;9.98;59.65;100442.75;5009525;28;20041;-72
2023/09/19 03:31:45;;;;;;;3.92;1.15;;;;;;;9.96;59.51;100437.59;5025929;28;20738;-72
2023/09/19 03:34:11;;;;;;;7.70;1.20;;;;;;;10.17;58.85;100441.03;5021073;28;20144;-73
2023/09/19 03:36:37;;;;;;;5.72;0.40;;;;;;;9.96;59.19;100442.81;5040444;28;20402;-70
2023/09/19 03:39:05;;;;;;;9.05;0.95;;;;;;;9.94;59.40;100444.66;5035104;28;20033;-69
2023/09/19 03:41:32;;;;;;;2.55;0.38;;;;;;;10.30;58.38;100440.44;5004603;28;20461;-69
2023/09/19 03:43:59;;;;;;;4.82;0.85;;;;;;;10.00;59.19;100438.31;5017507;28;20045;-69
2023/09/19 03:46:25;;;;;;;9.45;0.68;;;;;;;10.13;59.02;100439.47;5025846;28;20429;-69
2023/09/19 03:48:54;;;;;;;6.63;0.65;;;;;;;10.01;59.06;100437.38;5024151;28;20050;-69
2023/09/19 03:51:21;;;;;;;4.70;0.40;;;;;;;10.16;58.72;100439.31;5040879;28;20963;-69
2023/09/19 03:53:49;;;;;;;4.93;0.63;;;;;;;10.43;57.77;100444.19;5021574;28;20055;-69
2023/09/19 03:56:14;;;;;;;14.50;0.60;;;;;;;9.71;60.05;100445.63;5021490;28;20060;-71
2023/09/19 03:58:40;;;;;;;2.85;0.55;;;;;;;9.82;59.71;100445.19;5021527;28;20574;-70
2023/09/19 04:01:09;;;;;;;2.95;0.68;;;;;;;9.67;60.04;100441.44;5036483;28;20032;-71
2023/09/19 04:03:45;;;;;;;6.45;0.43;;;;;;;9.89;59.30;100445.78;5020989;28;20526;-70
2023/09/19 04:06:12;;;;;;;4.72;0.40;;;;;;;9.85;59.11;100452.03;5022529;28;21537;-70
2023/09/19 04:08:37;;;;;;;4.13;0.52;;;;;;;10.46;57.53;100446.69;5020716;28;20205;-67
2023/09/19 04:11:03;;;;;;;3.08;0.35;;;;;;;10.25;58.33;100437.22;5035251;28;20065;-69
2023/09/19 04:13:28;;;;;;;3.58;0.40;;;;;;;10.01;59.33;100447.84;5037065;28;20033;-71
2023/09/19 04:15:54;;;;;;;4.05;0.50;;;;;;;9.70;60.18;100441.34;5021683;28;20032;-73
2023/09/19 04:18:20;;;;;;;6.55;0.68;;;;;;;10.26;58.39;100454.56;5034822;28;20526;-70
2023/09/19 04:20:50;;;;;;;7.82;0.80;;;;;;;9.77;60.31;100458.41;5026958;28;20124;-73
2023/09/19 04:23:16;;;;;;;7.57;0.43;;;;;;;9.74;60.05;100457.69;5022865;28;20044;-70
2023/09/19 04:25:44;;;;;;;9.90;0.80;;;;;;;9.85;60.08;100465.09;5022144;28;20098;-70
2023/09/19 04:28:10;;;;;;;6.05;0.77;;;;;;;9.36;61.45;100452.34;5034475;28;20029;-70
2023/09/19 04:30:37;;;;;;;5.00;1.30;;;;;;;9.98;59.61;100455.81;5035492;28;20024;-70
2023/09/19 04:33:03;;;;;;;2.78;0.25;;;;;;;10.16;58.97;100470.66;5033086;28;20103;-70
2023/09/19 04:35:31;;;;;;;3.80;0.57;;;;;;;9.84;60.12;100473.84;5018799;28;20482;-70
2023/09/19 04:37:57;;;;;;;3.05;0.47;;;;;;;9.80;60.23;100475.72;5019986;28;20388;-71
2023/09/19 04:40:26;;;;;;;8.07;0.90;;;;;;;9.83;60.19;100469.53;5035969;28;20052;-68
2023/09/19 04:42:56;;;;;;;4.30;0.50;;;;;;;9.45;61.74;100482.41;5022463;28;20064;-70
2023/09/19 04:45:26;;;;;;;4.80;1.27;;;;;;;9.87;60.34;100485.00;5035359;28;20124;-71
2023/09/19 04:47:52;;;;;;;2.53;0.60;;;;;;;9.64;60.73;100493.78;5026911;28;20102;-71
2023/09/19 04:50:21;;;;;;;4.03;0.90;;;;;;;10.04;59.46;100489.50;5015936;28;20029;-71
2023/09/19 04:52:50;;;;;;;4.93;0.40;;;;;;;10.33;58.61;100485.59;5036075;28;20404;-70
2023/09/19 04:55:18;;;;;;;2.28;0.50;;;;;;;10.08;59.68;100483.22;5018857;28;22211;-70
2023/09/19 04:57:48;;;;;;;3.22;0.80;;;;;;;9.92;59.63;100490.00;5020464;28;20048;-71
2023/09/19 05:00:16;;;;;;;5.18;0.50;;;;;;;9.93;60.05;100487.34;5020481;28;20033;-71
2023/09/19 05:02:43;;;;;;;7.55;0.80;;;;;;;9.90;59.71;100487.50;5022773;28;20613;-70
2023/09/19 05:05:16;;;;;;;8.68;1.17;;;;;;;10.00;59.62;100493.16;5019921;28;20056;-70
2023/09/19 05:07:42;;;;;;;3.88;0.73;;;;;;;10.06;59.40;100492.00;5024107;28;20041;-68
2023/09/19 05:10:10;;;;;;;6.18;0.77;;;;;;;10.37;58.46;100501.94;5018904;28;20029;-68
2023/09/19 05:12:36;;;;;;;4.63;0.52;;;;;;;10.33;58.08;100505.63;5035502;28;20037;-69
2023/09/19 05:15:06;;;;;;;7.25;0.73;;;;;;;10.14;59.05;100505.59;5020833;28;20372;-69
2023/09/19 05:17:33;;;;;;;11.38;1.63;;;;;;;10.24;58.57;100506.06;5018092;28;20037;-69
2023/09/19 05:20:05;;;;;;;8.95;0.60;;;;;;;10.27;58.19;100490.22;5023105;28;20411;-70
2023/09/19 05:22:32;;;;;;;8.20;0.57;;;;;;;9.72;59.79;100496.91;5022637;28;20106;-68
2023/09/19 05:24:58;;;;;;;6.78;0.90;;;;;;;10.28;57.88;100499.75;5043162;28;20037;-69
2023/09/19 05:27:24;;;;;;;7.32;0.63;;;;;;;10.59;57.15;100500.09;5016059;28;20073;-69
2023/09/19 05:29:52;;;;;;;6.45;0.52;;;;;;;10.36;57.63;100492.44;5021966;28;20067;-69
2023/09/19 05:32:19;;;;;;;8.88;0.40;;;;;;;10.52;57.22;100503.03;5016002;28;20620;-70
2023/09/19 05:34:47;;;;;;;5.00;0.38;;;;;;;10.97;55.65;100504.44;5020383;28;20033;-72
2023/09/19 05:37:13;;;;;;;5.35;0.30;;;;;;;10.48;56.79;100518.00;5016178;28;20044;-68
2023/09/19 05:39:39;;;;;;;10.50;0.65;;;;;;;10.42;57.00;100507.84;5018471;28;21610;-70
2023/09/19 05:42:04;;;;;;;3.97;1.00;;;;;;;10.70;56.58;100522.25;4997923;28;20033;-73
2023/09/19 05:44:29;;;;;;;4.25;0.38;;;;;;;10.76;56.13;100519.34;5034108;28;20115;-71
2023/09/19 05:46:56;;;;;;;1.92;0.40;;;;;;;10.82;56.04;100521.72;5026399;28;20025;-73
2023/09/19 05:49:24;;;;;;;9.27;0.57;;;;;;;10.45;57.19;100512.06;5020493;28;20033;-72
2023/09/19 05:51:53;;;;;;;3.38;0.50;;;;;;;10.46;57.26;100504.16;5025111;28;20378;-73
2023/09/19 05:54:20;;;;;;;7.97;0.98;;;;;;;10.92;56.13;100517.72;5021015;28;20105;-69
2023/09/19 05:56:47;;;;;;;3.15;0.40;;;;;;;10.93;55.79;100514.22;5011815;28;20415;-72
2023/09/19 05:59:15;;;;;;;8.43;0.50;;;;;;;10.42;57.67;100513.06;5035111;28;20118;-73
2023/09/19 06:01:42;;;;;;;7.30;0.88;;;;;;;10.67;56.81;100509.31;5027454;28;20040;-73
2023/09/19 06:04:10;;;;;;;2.53;0.50;;;;;;;9.88;59.21;100517.16;5019843;28;20048;-71
2023/09/19 06:06:38;;;;;;;7.15;0.50;;;;;;;10.31;57.86;100512.69;5022253;28;20040;-72
2023/09/19 06:09:08;;;;;;;4.30;0.70;;;;;;;10.31;58.23;100504.84;5044120;28;20036;-71
2023/09/19 06:11:37;;;;;;;8.05;0.50;;;;;;;10.24;58.58;100513.88;5026951;28;20098;-72
2023/09/19 06:14:03;;;;;;;4.97;0.40;;;;;;;10.20;58.76;100511.41;5026371;28;20045;-72
2023/09/19 06:16:29;;;;;;;8.63;0.85;;;;;;;10.61;57.85;100519.13;5018090;28;20380;-70
2023/09/19 06:19:01;;;;;;;1.90;0.47;;;;;;;10.57;58.39;100522.81;5024703;28;20094;-69
2023/09/19 06:21:27;;;;;;;11.48;1.85;;;;;;;10.80;57.26;100520.91;5023475;28;20564;-68
2023/09/19 06:23:54;;;;;;;7.00;0.73;;;;;;;10.08;59.46;100524.13;5038456;28;20041;-68
2023/09/19 06:26:19;;;;;;;4.75;0.57;;;;;;;10.71;58.12;100535.25;5003280;28;20420;-69
2023/09/19 06:28:45;;;;;;;4.68;0.98;;;;;;;10.84;58.00;100540.81;5020562;28;20109;-69
2023/09/19 06:31:11;;;;;;;2.88;0.65;;;;;;;10.66;58.77;100541.59;5020373;28;20466;-68
2023/09/19 06:33:40;;;;;;;6.75;1.20;;;;;;;10.75;58.22;100547.25;5020059;28;20043;-68
2023/09/19 06:36:07;;;;;;;6.22;0.45;;;;;;;10.64;58.53;100550.38;5022667;28;20032;-71
2023/09/19 06:38:36;;;;;;;9.07;1.05;;;;;;;10.68;58.35;100545.81;5022616;28;20049;-71
2023/09/19 06:41:06;;;;;;;6.38;0.82;;;;;;;10.56;58.60;100535.94;5027767;28;20110;-69
2023/09/19 06:43:33;;;;;;;4.87;0.50;;;;;;;10.97;57.78;100544.53;5020099;28;20342;-68
2023/09/19 06:46:00;;;;;;;4.65;0.88;;;;;;;11.00;57.55;100562.69;5038646;28;20395;-71
2023/09/19 06:48:26;;;;;;;9.35;0.73;;;;;;;11.44;56.21;100562.34;5018273;28;20132;-71
2023/09/19 06:51:05;;;;;;;3.22;0.60;;;;;;;11.03;56.96;100562.53;5028034;28;20068;-71
2023/09/19 06:53:32;;;;;;;5.47;0.73;;;;;;;11.41;56.71;100559.84;5006115;28;20049;-71
2023/09/19 06:55:58;;;;;;;6.53;1.40;;;;;;;11.05;57.04;100568.53;5047069;28;20265;-70
2023/09/19 06:58:23;;;;;;;7.47;0.73;;;;;;;11.31;56.56;100566.47;5020518;28;20102;-71
2023/09/19 07:00:50;;;;;;;5.07;0.60;;;;;;;11.14;57.28;100564.66;5038291;28;20041;-68
2023/09/19 07:03:19;;;;;;;9.60;0.30;;;;;;;10.84;57.66;100567.78;5019889;28;20484;-70
2023/09/19 07:05:48;;;;;;;5.28;0.73;;;;;;;11.20;57.44;100564.38;5004277;28;20152;-70
2023/09/19 07:08:15;;;;;;;6.68;0.80;;;;;;;11.60;56.02;100572.06;5026368;28;20103;-69
2023/09/19 07:10:47;;;;;;;8.65;1.75;;;;;;;11.01;57.81;100569.59;5022764;28;20060;-70
2023/09/19 07:13:12;;;;;;;5.78;0.50;;;;;;;11.48;56.68;100568.25;5018912;28;20711;-71
2023/09/19 07:15:39;;;;;;;11.52;0.90;;;;;;;11.59;56.58;100580.81;5037190;28;20116;-68
2023/09/19 07:18:06;;;;;;;4.63;0.65;;;;;;;11.19;57.31;100573.13;5026769;28;20419;-68
2023/09/19 07:20:34;;;;;;;6.22;1.08;;;;;;;11.31;57.07;100569.09;5018833;28;20525;-69
2023/09/19 07:23:00;;;;;;;4.10;0.70;;;;;;;11.53;57.28;100575.88;5022184;28;20566;-68
2023/09/19 07:25:26;;;;;;;3.83;0.73;;;;;;;11.24;57.55;100568.53;5021819;28;20045;-66
2023/09/19 07:27:52;;;;;;;3.67;0.43;;;;;;;11.46;57.21;100576.22;5025435;28;20044;-67
2023/09/19 07:30:18;;;;;;;7.43;0.60;;;;;;;11.87;56.12;100585.59;5036035;28;20025;-68
2023/09/19 07:32:43;;;;;;;5.07;0.80;;;;;;;11.69;56.47;100571.63;5020182;28;20580;-67
2023/09/19 07:35:09;;;;;;;5.18;0.95;;;;;;;11.27;57.21;100577.16;5023236;28;20087;-67
2023/09/19 07:37:35;;;;;;;4.95;0.47;;;;;;;11.58;56.45;100581.75;5033681;28;20053;-67
2023/09/19 07:40:09;;;;;;;13.75;1.08;;;;;;;11.32;57.62;100583.84;5003241;28;20511;-68
2023/09/19 07:42:38;;;;;;;6.43;0.52;;;;;;;11.87;56.34;100585.59;5022532;28;21560;-68
2023/09/19 07:45:05;;;;;;;10.05;1.75;;;;;;;12.03;55.45;100588.28;5024023;28;20119;-68
2023/09/19 07:47:32;;;;;;;7.15;0.70;;;;;;;11.68;56.12;100596.06;5016788;28;20049;-68
2023/09/19 07:49:58;;;;;;;3.90;1.00;;;;;;;11.55;56.44;100584.50;5019268;28;20029;-68
2023/09/19 07:52:27;;;;;;;6.75;1.08;;;;;;;11.88;55.96;100584.66;5014975;28;20044;-68
2023/09/19 07:54:53;;;;;;;10.45;0.70;;;;;;;11.57;56.19;100577.44;5020940;28;20112;-67
2023/09/19 07:57:19;;;;;;;9.88;1.27;;;;;;;11.42;56.66;100574.66;5017707;28;20044;-68
2023/09/19 07:59:45;;;;;;;9.23;0.82;;;;;;;12.02;55.32;100587.44;5024295;28;20577;-68
2023/09/19 08:02:15;;;;;;;5.82;1.33;;;;;;;11.71;55.88;100579.38;5020996;28;20029;-67
2023/09/19 08:04:45;;;;;;;3.72;0.70;;;;;;;12.03;55.10;100575.19;5020335;28;20403;-68
2023/09/19 08:07:11;;;;;;;4.07;0.55;;;;;;;12.21;54.14;100576.84;5025376;28;20057;-68
2023/09/19 08:09:38;;;;;;;5.82;1.08;;;;;;;11.83;54.99;100576.19;5018053;28;21609;-67
2023/09/19 08:12:07;;;;;;;7.03;0.73;;;;;;;12.14;54.07;100588.59;5020999;28;20060;-68
2023/09/19 08:14:33;;;;;;;7.65;1.10;;;;;;;11.65;55.16;100575.28;5014703;28;20033;-67
2023/09/19 08:16:59;;;;;;;7.38;1.08;;;;;;;12.00;54.00;100588.41;5021893;28;20035;-68
2023/09/19 08:19:28;;;;;;;1.80;0.50;;;;;;;12.50;53.25;100584.97;5019269;28;20025;-67
2023/09/19 08:22:03;;;;;;;9.38;1.20;;;;;;;12.50;52.67;100584.97;5019637;28;20036;-68
2023/09/19 08:24:30;;;;;;;7.22;0.70;;;;;;;12.80;51.61;100573.78;5019116;28;20485;-67
2023/09/19 08:26:56;;;;;;;8.85;0.75;;;;;;;13.03;51.58;100577.81;5023701;28;20052;-68
2023/09/19 08:29:27;;;;;;;6.13;0.82;;;;;;;12.62;51.95;100565.13;5017426;28;20713;-69
2023/09/19 08:31:57;;;;;;;6.88;0.70;;;;;;;13.88;49.46;100581.78;5021665;28;20632;-67
2023/09/19 08:34:26;;;;;;;7.35;1.08;;;;;;;13.40;49.63;100592.31;5017133;28;20167;-69
2023/09/19 08:36:56;;;;;;;6.18;1.05;;;;;;;13.25;50.13;100583.56;5020395;28;20068;-67
2023/09/19 08:39:22;;;;;;;6.10;1.08;;;;;;;13.69;48.75;100587.22;5016567;28;20047;-67
2023/09/19 08:41:48;;;;;;;7.22;0.63;;;;;;;13.61;49.21;100598.19;5019128;28;20041;-68
2023/09/19 08:44:14;;;;;;;4.20;0.55;;;;;;;13.81;48.86;100581.28;5019596;28;20047;-67
2023/09/19 08:46:41;;;;;;;4.82;0.30;;;;;;;13.71;48.97;100595.88;5015736;28;20041;-66
2023/09/19 08:49:36;;;;;;;4.47;0.70;;;;;;;13.39;49.35;100593.28;5016521;28;20052;-67
2023/09/19 08:52:16;;;;;;;3.10;0.50;;;;;;;13.41;49.42;100599.28;5013623;28;20072;-69
2023/09/19 08:54:43;;;;;;;7.40;0.73;;;;;;;14.51;47.26;100604.31;5012939;28;20033;-67
2023/09/19 08:57:11;;;;;;;3.63;1.15;;;;;;;14.93;46.39;100621.03;5033924;28;20576;-69
2023/09/19 08:59:41;;;;;;;9.18;0.88;;;;;;;14.39;46.68;100597.13;5034965;28;20044;-68
2023/09/19 09:02:15;;;;;;;12.80;1.35;;;;;;;14.91;46.60;100604.50;5021893;28;20029;-67
2023/09/19 09:04:45;;;;;;;5.30;0.60;;;;;;;14.94;46.29;100599.88;5016319;28;21679;-67
2023/09/19 09:07:14;;;;;;;5.88;0.47;;;;;;;15.18;45.00;100600.09;5022615;28;20032;-68
2023/09/19 09:09:43;;;;;;;4.82;0.73;;;;;;;14.46;47.08;100609.88;5014631;28;20408;-67
2023/09/19 09:12:13;;;;;;;4.50;0.40;;;;;;;14.89;46.72;100604.56;5015275;28;20079;-70
2023/09/19 09:14:41;;;;;;;5.13;0.75;;;;;;;14.34;45.86;100621.94;5029355;28;20041;-68
2023/09/19 09:17:07;;;;;;;6.32;0.60;;;;;;;15.24;44.82;100608.56;5019097;28;20037;-66
2023/09/19 09:19:33;;;;;;;8.40;0.80;;;;;;;15.35;44.51;100600.84;5021014;28;20516;-67
2023/09/19 09:22:11;;;;;;;6.85;0.98;;;;;;;15.34;45.15;100599.16;5023804;28;20112;-67
2023/09/19 09:24:50;;;;;;;4.28;0.85;;;;;;;15.17;45.15;100601.06;5021065;28;20160;-68
2023/09/19 09:27:16;;;;;;;4.78;0.68;;;;;;;15.29;44.40;100603.88;5024643;28;20677;-68
2023/09/19 09:29:51;;;;;;;3.35;0.30;;;;;;;16.03;43.67;100607.81;4998215;28;21811;-68
2023/09/19 09:32:19;;;;;;;8.25;0.93;;;;;;;16.12;42.82;100604.56;5023133;28;20044;-68
2023/09/19 09:34:48;;;;;;;3.03;0.80;;;;;;;16.20;42.51;100601.41;5018679;28;20090;-67
2023/09/19 09:37:15;;;;;;;17.33;1.30;;;;;;;15.01;45.37;100595.06;5026083;28;20029;-67
2023/09/19 09:39:51;;;;;;;10.48;1.13;;;;;;;14.85;45.22;100607.50;5020483;28;20112;-67
2023/09/19 09:42:33;;;;;;;7.47;0.90;;;;;;;15.18;45.44;100599.25;5035351;28;20320;-67
2023/09/19 09:45:17;;;;;;;8.88;1.08;;;;;;;14.76;45.35;100601.84;5021443;28;20032;-67
2023/09/19 09:47:49;;;;;;;8.35;0.60;;;;;;;14.86;45.67;100606.56;5019699;28;21415;-67
2023/09/19 09:50:28;;;;;;;6.20;1.45;;;;;;;13.69;47.74;100624.84;5023634;28;20584;-67
2023/09/19 09:53:02;;;;;;;7.75;0.63;;;;;;;12.97;50.14;100614.88;5025169;28;20106;-67
2023/09/19 09:55:28;;;;;;;3.17;0.70;;;;;;;13.37;49.94;100621.38;5025529;28;20127;-67
2023/09/19 09:58:17;;;;;;;7.50;1.17;;;;;;;14.00;47.60;100612.56;5009231;28;20041;-69
2023/09/19 10:00:57;;;;;;;12.07;1.00;;;;;;;14.64;47.28;100613.16;5017948;28;20029;-68
2023/09/19 10:03:43;;;;;;;7.35;0.85;;;;;;;14.35;47.15;100628.03;5021255;28;20068;-67
2023/09/19 10:09:11;;;;;;;6.63;1.05;;;;;;;14.77;46.88;100621.16;5018255;28;20073;-68
2023/09/19 10:11:44;;;;;;;;;;;;;;;14.70;47.25;100614.53;5021439;28;20144;-67
2023/09/19 10:14:12;;;;;;;9.57;1.08;;;;;;;15.40;45.51;100609.28;5021051;28;19924;-69
2023/09/19 10:16:47;;;;;;;3.33;0.63;;;;;;;15.62;45.19;100621.06;5019706;28;20584;-67
2023/09/19 10:19:22;;;;;;;5.35;0.90;;;;;;;14.93;45.13;100613.13;5022803;28;20508;-67
2023/09/19 10:21:50;;;;;;;11.00;1.90;;;;;;;15.25;45.07;100607.66;5029093;28;20455;-67
2023/09/19 10:24:17;;;;;;;8.13;0.73;;;;;;;15.46;44.52;100610.66;5038124;28;20051;-67
2023/09/19 10:26:45;;;;;;;7.60;1.02;;;;;;;15.14;44.68;100609.13;5014325;28;20068;-68
2023/09/19 10:29:14;;;;;;;5.97;1.40;;;;;;;14.67;45.20;100597.16;5016810;28;20049;-68
2023/09/19 10:31:47;;;;;;;8.10;1.45;;;;;;;14.95;44.90;100590.22;5013323;28;20086;-69
2023/09/19 10:34:14;;;;;;;8.90;1.50;;;;;;;14.37;46.49;100610.38;4998811;28;20045;-67
2023/09/19 10:36:47;;;;;;;4.28;0.90;;;;;;;14.38;46.41;100591.03;5013951;28;20120;-69
2023/09/19 10:39:19;;;;;;;4.45;1.00;;;;;;;14.90;46.00;100579.97;5003798;28;20059;-68
2023/09/19 10:42:02;;;;;;;6.28;1.00;;;;;;;14.67;46.32;100591.91;5012649;28;20040;-68
2023/09/19 10:44:32;;;;;;;3.60;1.13;;;;;;;14.98;45.45;100574.22;5001281;28;20040;-68
2023/09/19 10:46:59;;;;;;;3.53;1.10;;;;;;;14.96;45.39;100574.31;5021559;28;21962;-68
2023/09/19 10:49:25;;;;;;;6.78;1.05;;;;;;;15.72;44.24;100574.72;5022085;28;20021;-68
2023/09/19 10:51:59;;;;;;;8.68;1.20;;;;;;;16.59;43.22;100570.56;5014379;28;20033;-68
2023/09/19 10:54:32;;;;;;;3.25;0.75;;;;;;;15.75;43.56;100580.66;5018007;28;20036;-69
2023/09/19 10:56:59;;;;;;;7.13;1.65;;;;;;;16.18;43.94;100588.31;5014761;28;20044;-68
2023/09/19 10:59:25;;;;;;;5.97;1.27;;;;;;;16.65;41.84;100574.59;5018379;28;20441;-68
2023/09/19 11:01:53;;;;;;;8.68;1.38;;;;;;;16.16;42.83;100579.66;5014327;28;20059;-68
2023/09/19 11:04:38;;;;;;;6.80;0.80;;;;;;;15.41;43.27;100571.47;5020025;28;20410;-68
2023/09/19 11:07:14;;;;;;;9.80;1.40;;;;;;;15.87;43.26;100568.44;5007070;28;20037;-67
2023/09/19 11:09:58;;;;;;;11.38;1.48;;;;;;;;;;5023450;28;20032;-68
2023/09/19 11:12:40;;;;;;;10.93;1.00;;;;;;;14.92;45.41;100564.06;5021973;28;20227;-68
2023/09/19 11:15:11;;;;;;;9.13;1.35;;;;;;;15.98;42.96;100559.81;5023145;28;20462;-68
2023/09/19 11:17:40;;;;;;;7.33;1.00;;;;;;;15.73;43.80;100571.16;5017199;28;20056;-69
2023/09/19 11:22:51;;;;;;;5.50;1.02;;;;;;;15.16;45.05;100556.41;5015202;28;20051;-68
2023/09/19 11:25:32;;;;;;;12.20;1.33;;;;;;;15.21;44.80;100548.19;5040962;28;20482;-68
2023/09/19 11:30:37;;;;;;;10.27;1.42;;;;;;;16.57;41.96;100543.44;5015450;28;20036;-67
2023/09/19 11:33:28;;;;;;;9.07;0.93;;;;;;;16.69;40.99;100532.03;5014493;28;20418;-68
2023/09/19 11:36:08;;;;;;;5.65;0.75;;;;;;;16.29;41.38;100536.66;5011827;28;20052;-68
2023/09/19 11:38:45;;;;;;;5.07;0.77;;;;;;;15.75;42.19;100561.34;5022922;28;20462;-67
2023/09/19 11:41:38;;;;;;;11.55;0.60;;;;;;;16.22;41.30;100536.22;5039782;28;20166;-67
2023/09/19 11:44:06;;;;;;;6.47;1.13;;;;;;;15.99;41.02;100551.81;4991078;28;20430;-68
2023/09/19 11:46:58;;;;;;;6.82;0.90;;;;;;;16.05;40.98;100544.44;5023497;28;20098;-68